createdAt,value
2019-03-11T00:01:46.415Z,1.53
2019-03-11T00:04:17.588Z,1.33
2019-03-11T00:06:46.959Z,1.40
2019-03-11T00:09:17.188Z,1.30
2019-03-11T00:11:47.591Z,0.77
2019-03-11T00:14:17.919Z,1.00
2019-03-11T00:16:48.395Z,0.87
2019-03-11T00:19:19.012Z,1.27
2019-03-11T00:21:49.395Z,0.90
2019-03-11T00:24:19.784Z,0.80
2019-03-11T00:26:50.140Z,0.80
2019-03-11T00:29:20.567Z,0.90
2019-03-11T00:31:51.428Z,0.90
2019-03-11T00:34:21.868Z,0.80
2019-03-11T00:36:52.140Z,1.00
2019-03-11T00:39:22.403Z,0.90
2019-03-11T00:41:52.861Z,0.77
2019-03-11T00:44:23.096Z,0.83
2019-03-11T00:46:53.539Z,1.10
2019-03-11T00:49:23.705Z,1.30
2019-03-11T00:51:54.069Z,1.10
2019-03-11T00:54:24.919Z,1.30
2019-03-11T00:56:55.141Z,1.50
2019-03-11T00:59:25.380Z,1.83
2019-03-11T01:01:55.699Z,1.67
2019-03-11T01:04:26.027Z,2.20
2019-03-11T01:06:56.475Z,1.60
2019-03-11T01:09:26.803Z,1.60
2019-03-11T01:11:56.943Z,1.80
2019-03-11T01:14:27.195Z,1.73
2019-03-11T01:16:57.495Z,1.80
2019-03-11T01:19:27.899Z,1.90
2019-03-11T01:21:58.229Z,1.73
2019-03-11T01:24:28.543Z,1.63
2019-03-11T01:26:58.938Z,1.67
2019-03-11T01:29:29.192Z,1.53
2019-03-11T01:31:59.592Z,1.70
2019-03-11T01:34:29.959Z,1.40
2019-03-11T01:37:00.325Z,1.43
2019-03-11T01:39:30.578Z,1.60
2019-03-11T01:42:00.980Z,1.50
2019-03-11T01:44:31.295Z,1.73
2019-03-11T01:47:01.566Z,1.90
2019-03-11T01:49:31.988Z,1.80
2019-03-11T01:52:02.364Z,2.07
2019-03-11T01:54:32.595Z,2.07
2019-03-11T01:57:02.854Z,2.10
2019-03-11T01:59:32.978Z,2.27
2019-03-11T02:02:03.449Z,2.10
2019-03-11T02:04:33.708Z,2.27
2019-03-11T02:07:03.921Z,1.73
2019-03-11T02:09:34.364Z,1.80
2019-03-11T02:12:04.860Z,1.60
2019-03-11T02:14:35.402Z,1.50
2019-03-11T02:17:05.865Z,1.50
2019-03-11T02:19:36.206Z,1.70
2019-03-11T02:22:06.527Z,1.70
2019-03-11T02:24:36.802Z,1.80
2019-03-11T02:27:07.159Z,2.10
2019-03-11T02:29:37.525Z,2.03
2019-03-11T02:32:07.798Z,2.30
2019-03-11T02:34:38.106Z,2.10
2019-03-11T02:37:08.603Z,2.40
2019-03-11T02:39:39.283Z,3.03
2019-03-11T02:42:09.651Z,2.30
2019-03-11T02:44:39.871Z,2.80
2019-03-11T02:47:10.181Z,2.50
2019-03-11T02:49:43.779Z,2.77
2019-03-11T02:52:10.751Z,2.70
2019-03-11T02:54:40.964Z,2.77
2019-03-11T02:57:11.361Z,3.10
2019-03-11T02:59:41.705Z,3.10
2019-03-11T03:02:31.310Z,2.53
2019-03-11T03:05:11.566Z,2.30
2019-03-11T03:07:41.907Z,2.70
2019-03-11T03:10:12.217Z,2.80
2019-03-11T03:12:42.583Z,3.00
2019-03-11T03:15:12.935Z,2.70
2019-03-11T03:17:43.195Z,2.73
2019-03-11T03:20:13.490Z,2.40
2019-03-11T03:22:44.280Z,2.17
2019-03-11T03:25:14.566Z,1.97
2019-03-11T03:27:45.038Z,2.10
2019-03-11T03:30:16.617Z,2.60
2019-03-11T03:32:47.120Z,2.63
2019-03-11T03:35:17.560Z,2.30
2019-03-11T03:37:47.912Z,2.43
2019-03-11T03:40:18.253Z,2.33
2019-03-11T03:42:48.784Z,2.40
2019-03-11T03:45:21.022Z,2.90
2019-03-11T03:47:50.518Z,2.37
2019-03-11T03:50:20.165Z,2.87
2019-03-11T03:52:50.747Z,2.63
2019-03-11T03:55:21.026Z,2.90
2019-03-11T03:57:51.512Z,3.00
2019-03-11T04:00:21.880Z,2.57
2019-03-11T04:02:52.307Z,2.53
2019-03-11T04:05:22.474Z,2.67
2019-03-11T04:07:52.776Z,3.07
2019-03-11T04:10:23.211Z,2.70
2019-03-11T04:12:53.582Z,2.80
2019-03-11T04:15:23.793Z,3.03
2019-03-11T04:17:53.984Z,2.70
2019-03-11T04:20:24.438Z,2.43
2019-03-11T04:22:54.833Z,2.83
2019-03-11T04:25:24.996Z,3.57
2019-03-11T04:27:55.431Z,3.83
2019-03-11T04:30:25.777Z,4.63
2019-03-11T04:32:56.294Z,3.20
2019-03-11T04:35:26.495Z,3.10
2019-03-11T04:37:56.914Z,3.97
2019-03-11T04:40:27.300Z,2.70
2019-03-11T04:42:57.630Z,3.03
2019-03-11T04:45:28.019Z,3.33
2019-03-11T04:47:58.347Z,3.87
2019-03-11T04:50:28.723Z,3.73
2019-03-11T04:52:58.990Z,3.50
2019-03-11T04:55:29.259Z,3.23
2019-03-11T04:57:59.556Z,3.67
2019-03-11T05:00:30.175Z,5.10
2019-03-11T05:03:00.660Z,5.47
2019-03-11T05:05:31.167Z,5.70
2019-03-11T05:08:01.414Z,6.23
2019-03-11T05:10:31.800Z,5.73
2019-03-11T05:13:02.144Z,6.33
2019-03-11T05:15:32.668Z,6.10
2019-03-11T05:18:02.992Z,6.00
2019-03-11T05:20:33.995Z,6.37
2019-03-11T05:23:04.401Z,5.87
2019-03-11T05:25:34.644Z,5.63
2019-03-11T05:28:04.890Z,5.53
2019-03-11T05:30:35.107Z,6.30
2019-03-11T05:33:05.843Z,6.10
2019-03-11T05:35:36.144Z,5.20
2019-03-11T05:38:06.991Z,5.33
2019-03-11T05:40:37.322Z,4.43
2019-03-11T05:43:07.642Z,4.13
2019-03-11T05:45:38.075Z,4.53
2019-03-11T05:48:08.298Z,4.00
2019-03-11T05:50:38.534Z,3.23
2019-03-11T05:53:08.748Z,4.00
2019-03-11T05:55:39.015Z,3.83
2019-03-11T05:58:08.799Z,3.80
2019-03-11T06:00:38.972Z,3.70
2019-03-11T06:03:09.296Z,3.13
2019-03-11T06:05:39.703Z,4.20
2019-03-11T06:08:13.082Z,3.90
2019-03-11T06:10:43.512Z,4.00
2019-03-11T06:13:14.031Z,3.57
2019-03-11T06:15:44.276Z,3.77
2019-03-11T06:18:14.687Z,4.30
2019-03-11T06:20:50.967Z,5.00
2019-03-11T06:23:21.188Z,4.70
2019-03-11T06:25:51.525Z,6.10
2019-03-11T06:28:21.771Z,5.50
2019-03-11T06:30:52.056Z,7.07
2019-03-11T06:33:22.691Z,6.27
2019-03-11T06:35:52.942Z,23.73
2019-03-11T06:38:23.204Z,6.33
2019-03-11T06:40:53.518Z,6.97
2019-03-11T06:43:23.828Z,7.43
2019-03-11T06:45:54.527Z,7.70
2019-03-11T06:48:24.567Z,7.83
2019-03-11T06:50:54.795Z,8.37
2019-03-11T06:53:25.011Z,7.80
2019-03-11T06:55:55.310Z,7.17
2019-03-11T06:58:25.519Z,13.53
2019-03-11T07:00:55.627Z,8.60
2019-03-11T07:03:25.943Z,6.63
2019-03-11T07:05:56.182Z,8.60
2019-03-11T07:08:26.447Z,6.87
2019-03-11T07:10:56.779Z,8.83
2019-03-11T07:13:27.399Z,6.80
2019-03-11T07:15:57.664Z,6.13
2019-03-11T07:18:27.955Z,6.77
2019-03-11T07:20:58.659Z,7.60
2019-03-11T07:23:29.047Z,5.53
2019-03-11T07:25:58.754Z,6.60
2019-03-11T07:28:29.016Z,6.03
2019-03-11T07:30:59.217Z,5.70
2019-03-11T07:33:29.480Z,5.30
2019-03-11T07:35:59.920Z,5.50
2019-03-11T07:38:30.304Z,6.53
2019-03-11T07:41:00.512Z,8.13
2019-03-11T07:43:30.715Z,4.43
2019-03-11T07:46:00.891Z,4.30
2019-03-11T07:48:31.243Z,4.37
2019-03-11T07:51:01.443Z,4.53
2019-03-11T07:53:32.034Z,5.07
2019-03-11T07:56:02.253Z,4.97
2019-03-11T07:58:32.520Z,4.03
2019-03-11T08:01:02.739Z,6.83
2019-03-11T08:03:33.628Z,9.27
2019-03-11T08:06:03.971Z,4.57
2019-03-11T08:08:34.256Z,3.60
2019-03-11T08:11:04.643Z,2.83
2019-03-11T08:13:34.966Z,5.73
2019-03-11T08:16:05.471Z,4.33
2019-03-11T08:18:35.833Z,2.57
2019-03-11T08:21:06.331Z,4.23
2019-03-11T08:23:36.580Z,2.73
2019-03-11T08:26:06.906Z,2.70
2019-03-11T08:28:37.140Z,6.57
2019-03-11T08:31:07.549Z,2.23
2019-03-11T08:33:38.216Z,3.03
2019-03-11T08:36:07.807Z,3.80
2019-03-11T08:38:38.044Z,2.80
2019-03-11T08:41:08.331Z,1.90
2019-03-11T08:43:38.627Z,2.40
2019-03-11T08:46:08.810Z,2.20
2019-03-11T08:48:39.131Z,2.43
2019-03-11T08:51:09.362Z,1.93
2019-03-11T08:53:39.117Z,2.13
2019-03-11T08:56:09.296Z,3.77
2019-03-11T08:58:39.599Z,2.93
2019-03-11T09:01:09.782Z,1.83
2019-03-11T09:03:40.220Z,2.47
2019-03-11T09:06:10.400Z,1.73
2019-03-11T09:08:40.690Z,2.10
2019-03-11T09:11:10.910Z,1.87
2019-03-11T09:13:41.127Z,5.53
2019-03-11T09:16:11.384Z,3.20
2019-03-11T09:18:42.172Z,2.20
2019-03-11T09:21:12.347Z,1.97
2019-03-11T09:23:42.635Z,2.27
2019-03-11T09:26:12.985Z,1.93
2019-03-11T09:28:43.247Z,2.17
2019-03-11T09:31:13.464Z,5.53
2019-03-11T09:33:44.264Z,2.33
2019-03-11T09:36:13.818Z,2.27
2019-03-11T09:38:43.859Z,1.60
2019-03-11T09:41:14.052Z,1.87
2019-03-11T09:43:44.154Z,9.50
2019-03-11T09:46:14.487Z,8.30
2019-03-11T09:48:44.975Z,6.40
2019-03-11T09:51:14.831Z,1.60
2019-03-11T09:53:45.117Z,2.00
2019-03-11T09:56:15.468Z,3.70
2019-03-11T09:58:46.947Z,3.53
2019-03-11T10:01:17.200Z,1.63
2019-03-11T10:03:47.423Z,4.77
2019-03-11T10:06:17.786Z,2.03
2019-03-11T10:08:47.967Z,1.70
2019-03-11T10:11:18.320Z,2.10
2019-03-11T10:13:48.499Z,1.30
2019-03-11T10:16:18.716Z,1.77
2019-03-11T10:18:50.340Z,1.80
2019-03-11T10:21:19.678Z,4.77
2019-03-11T10:23:49.924Z,3.27
2019-03-11T10:26:20.237Z,2.10
2019-03-11T10:28:50.427Z,2.00
2019-03-11T10:31:20.642Z,1.80
2019-03-11T10:33:50.839Z,2.17
2019-03-11T10:36:21.134Z,2.70
2019-03-11T10:38:51.372Z,2.17
2019-03-11T10:41:21.927Z,2.13
2019-03-11T10:43:52.163Z,2.50
2019-03-11T10:46:22.364Z,2.03
2019-03-11T10:48:52.476Z,2.70
2019-03-11T10:51:22.920Z,2.93
2019-03-11T10:53:53.091Z,2.90
2019-03-11T10:56:23.425Z,2.20
2019-03-11T10:58:53.672Z,1.90
2019-03-11T11:01:23.490Z,2.43
2019-03-11T11:03:53.588Z,1.73
2019-03-11T11:06:24.240Z,1.80
2019-03-11T11:08:54.418Z,1.70
2019-03-11T11:11:24.775Z,1.60
2019-03-11T11:13:54.944Z,2.13
2019-03-11T11:16:25.229Z,2.57
2019-03-11T11:18:56.156Z,1.87
2019-03-11T11:21:26.507Z,1.53
2019-03-11T11:23:56.735Z,2.10
2019-03-11T11:26:27.023Z,2.70
2019-03-11T11:28:57.195Z,1.87
2019-03-11T11:31:27.415Z,1.90
2019-03-11T11:33:57.641Z,1.50
2019-03-11T11:36:27.923Z,1.83
2019-03-11T11:38:58.135Z,1.63
2019-03-11T11:41:28.591Z,2.10
2019-03-11T11:43:58.871Z,2.30
2019-03-11T11:46:28.519Z,1.63
2019-03-11T11:48:58.643Z,2.10
2019-03-11T11:51:28.887Z,2.30
2019-03-11T11:53:59.147Z,2.07
2019-03-11T11:56:29.564Z,2.40
2019-03-11T11:59:00.166Z,2.30
2019-03-11T12:01:30.640Z,1.90
2019-03-11T12:04:00.910Z,2.13
2019-03-11T12:06:31.251Z,2.10
2019-03-11T12:09:01.540Z,2.03
2019-03-11T12:11:31.763Z,2.20
2019-03-11T12:14:02.269Z,2.37
2019-03-11T12:16:32.679Z,2.40
2019-03-11T12:19:03.096Z,2.93
2019-03-11T12:21:33.354Z,2.70
2019-03-11T12:24:03.556Z,2.20
2019-03-11T12:26:34.150Z,2.87
2019-03-11T12:29:04.416Z,1.20
2019-03-11T12:31:34.719Z,1.37
2019-03-11T12:34:04.955Z,1.43
2019-03-11T12:36:35.809Z,0.60
2019-03-11T12:39:07.539Z,0.93
2019-03-11T12:41:38.351Z,0.80
2019-03-11T12:44:08.651Z,0.80
2019-03-11T12:46:38.864Z,1.10
2019-03-11T12:49:09.047Z,0.53
2019-03-11T12:51:49.245Z,0.60
2019-03-11T12:54:09.752Z,0.23
2019-03-11T12:56:40.031Z,0.60
2019-03-11T12:59:10.271Z,0.63
2019-03-11T13:01:40.458Z,1.00
2019-03-11T13:04:10.183Z,0.63
2019-03-11T13:06:40.311Z,0.70
2019-03-11T13:09:10.499Z,0.83
2019-03-11T13:11:40.233Z,1.07
2019-03-11T13:14:10.343Z,0.97
2019-03-11T13:16:40.676Z,1.07
2019-03-11T13:19:13.463Z,1.30
2019-03-11T13:21:42.912Z,2.60
2019-03-11T13:24:13.247Z,1.80
2019-03-11T13:26:43.648Z,2.23
2019-03-11T13:29:13.952Z,2.00
2019-03-11T13:31:44.196Z,2.20
2019-03-11T13:34:14.470Z,2.10
2019-03-11T13:36:44.718Z,2.73
2019-03-11T13:39:14.857Z,2.77
2019-03-11T13:41:45.199Z,2.77
2019-03-11T13:44:15.527Z,2.43
2019-03-11T13:46:45.980Z,2.30
2019-03-11T13:49:16.270Z,2.43
2019-03-11T13:51:46.629Z,2.10
2019-03-11T13:54:16.969Z,2.30
2019-03-11T13:56:47.266Z,2.40
2019-03-11T13:59:17.555Z,2.40
2019-03-11T14:01:47.775Z,2.13
2019-03-11T14:04:18.051Z,2.20
2019-03-11T14:06:48.367Z,2.17
2019-03-11T14:09:18.504Z,2.10
2019-03-11T14:11:48.771Z,2.23
2019-03-11T14:14:19.190Z,2.07
2019-03-11T14:16:49.315Z,2.60
2019-03-11T14:19:19.896Z,2.30
2019-03-11T14:21:50.267Z,2.10
2019-03-11T14:24:20.572Z,2.40
2019-03-11T14:26:50.841Z,2.33
2019-03-11T14:29:21.100Z,2.00
2019-03-11T14:31:51.536Z,1.93
2019-03-11T14:34:21.641Z,2.37
2019-03-11T14:36:52.002Z,2.10
2019-03-11T14:39:22.123Z,2.10
2019-03-11T14:41:52.267Z,2.57
2019-03-11T14:44:22.594Z,2.93
2019-03-11T14:46:52.903Z,2.70
2019-03-11T14:49:22.959Z,2.60
2019-03-11T14:51:53.232Z,2.57
2019-03-11T14:54:23.432Z,2.53
2019-03-11T14:56:53.726Z,2.20
2019-03-11T14:59:23.920Z,2.23
2019-03-11T15:01:53.515Z,1.90
2019-03-11T15:04:23.684Z,1.37
2019-03-11T15:06:54.002Z,1.43
2019-03-11T15:09:24.333Z,1.20
2019-03-11T15:11:54.603Z,0.87
2019-03-11T15:14:24.916Z,0.80
2019-03-11T15:16:55.156Z,1.20
2019-03-11T15:19:25.858Z,0.60
2019-03-11T15:21:56.202Z,1.10
2019-03-11T15:24:26.427Z,0.70
2019-03-11T15:26:56.666Z,1.10
2019-03-11T15:29:26.915Z,1.50
2019-03-11T15:31:57.641Z,1.50
2019-03-11T15:34:27.628Z,1.63
2019-03-11T15:36:58.383Z,1.60
2019-03-11T15:39:28.679Z,1.20
2019-03-11T15:41:58.952Z,1.30
2019-03-11T15:44:29.223Z,1.30
2019-03-11T15:46:59.679Z,1.00
2019-03-11T15:49:29.967Z,1.20
2019-03-11T15:52:00.353Z,1.30
2019-03-11T15:54:30.720Z,1.30
2019-03-11T15:57:01.016Z,1.57
2019-03-11T15:59:31.287Z,1.20
2019-03-11T16:02:01.823Z,1.40
2019-03-11T16:04:32.166Z,1.33
2019-03-11T16:07:02.475Z,2.20
2019-03-11T16:09:32.761Z,1.27
2019-03-11T16:12:03.049Z,1.80
2019-03-11T16:14:33.407Z,1.80
2019-03-11T16:17:03.889Z,2.03
2019-03-11T16:19:34.960Z,2.47
2019-03-11T16:22:05.450Z,1.90
2019-03-11T16:24:35.668Z,2.27
2019-03-11T16:27:05.956Z,2.30
2019-03-11T16:29:36.226Z,2.30
2019-03-11T16:32:05.894Z,2.10
2019-03-11T16:34:36.092Z,2.47
2019-03-11T16:37:06.459Z,2.63
2019-03-11T16:39:36.688Z,3.50
2019-03-11T16:42:07.116Z,3.33
2019-03-11T16:44:36.797Z,2.90
2019-03-11T16:47:07.021Z,3.50
2019-03-11T16:49:37.417Z,1.80
2019-03-11T16:52:07.635Z,2.63
2019-03-11T16:54:37.916Z,2.10
2019-03-11T16:57:08.415Z,1.43
2019-03-11T16:59:38.587Z,1.20
2019-03-11T17:02:08.954Z,1.70
2019-03-11T17:04:39.244Z,1.50
2019-03-11T17:07:09.512Z,1.20
2019-03-11T17:09:39.754Z,1.00
2019-03-11T17:12:10.072Z,3.30
2019-03-11T17:14:40.331Z,1.57
2019-03-11T17:17:10.563Z,1.77
2019-03-11T17:19:40.999Z,1.80
2019-03-11T17:22:11.196Z,2.40
2019-03-11T17:24:41.363Z,3.03
2019-03-11T17:27:11.713Z,2.60
2019-03-11T17:29:42.012Z,2.43
2019-03-11T17:32:12.303Z,2.90
2019-03-11T17:34:42.599Z,3.70
2019-03-11T17:37:12.799Z,4.00
2019-03-11T17:39:42.442Z,8.50
2019-03-11T17:42:12.545Z,11.50
2019-03-11T17:44:42.322Z,6.67
2019-03-11T17:47:12.512Z,4.43
2019-03-11T17:49:42.932Z,4.30
2019-03-11T17:52:13.133Z,5.33
2019-03-11T17:54:43.408Z,3.70
2019-03-11T17:57:13.723Z,4.03
2019-03-11T17:59:44.115Z,4.20
2019-03-11T18:02:14.578Z,5.80
2019-03-11T18:04:44.923Z,4.63
2019-03-11T18:07:15.427Z,4.20
2019-03-11T18:09:45.748Z,4.50
2019-03-11T18:12:16.119Z,5.07
2019-03-11T18:14:46.546Z,4.40
2019-03-11T18:17:16.226Z,4.20
2019-03-11T18:19:46.812Z,5.17
2019-03-11T18:22:17.147Z,5.40
2019-03-11T18:24:47.472Z,7.37
2019-03-11T18:27:17.739Z,7.20
2019-03-11T18:29:48.028Z,6.80
2019-03-11T18:32:18.572Z,6.37
2019-03-11T18:34:49.011Z,6.97
2019-03-11T18:37:19.266Z,6.70
2019-03-11T18:39:50.090Z,6.43
2019-03-11T18:42:25.425Z,7.00
2019-03-11T18:44:50.989Z,8.17
2019-03-11T18:47:21.198Z,9.83
2019-03-11T18:49:51.470Z,8.60
2019-03-11T18:52:21.849Z,8.20
2019-03-11T18:54:52.176Z,8.13
2019-03-11T18:57:22.467Z,9.40
2019-03-11T18:59:52.550Z,9.10
2019-03-11T19:02:22.828Z,10.77
2019-03-11T19:04:53.204Z,10.73
2019-03-11T19:07:22.945Z,8.20
2019-03-11T19:09:53.148Z,8.83
2019-03-11T19:12:23.468Z,9.00
2019-03-11T19:14:53.745Z,8.90
2019-03-11T19:17:24.012Z,9.70
2019-03-11T19:19:54.912Z,9.17
2019-03-11T19:22:25.108Z,11.47
2019-03-11T19:24:55.357Z,9.33
2019-03-11T19:27:25.676Z,9.80
2019-03-11T19:29:56.052Z,10.03
2019-03-11T19:32:26.239Z,9.07
2019-03-11T19:34:56.499Z,9.53
2019-03-11T19:37:26.813Z,11.13
2019-03-11T19:39:57.351Z,10.10
2019-03-11T19:42:27.652Z,6.53
2019-03-11T19:44:57.974Z,8.10
2019-03-11T19:47:28.161Z,10.43
2019-03-11T19:49:58.364Z,9.87
2019-03-11T19:52:28.745Z,9.30
2019-03-11T19:54:58.950Z,11.47
2019-03-11T19:57:29.303Z,10.70
2019-03-11T19:59:59.659Z,11.07
2019-03-11T20:02:29.949Z,11.73
2019-03-11T20:05:00.345Z,11.27
2019-03-11T20:07:30.816Z,15.23
2019-03-11T20:10:00.556Z,16.33
2019-03-11T20:12:30.702Z,12.93
2019-03-11T20:15:01.215Z,15.63
2019-03-11T20:17:31.480Z,21.03
2019-03-11T20:20:01.849Z,21.33
2019-03-11T20:22:32.324Z,12.63
2019-03-11T20:25:02.745Z,7.67
2019-03-11T20:27:33.229Z,6.83
2019-03-11T20:30:03.608Z,8.03
2019-03-11T20:32:34.055Z,16.03
2019-03-11T20:35:04.621Z,16.60
2019-03-11T20:37:35.198Z,6.70
2019-03-11T20:40:06.275Z,12.80
2019-03-11T20:42:36.725Z,7.37
2019-03-11T20:45:07.242Z,14.70
2019-03-11T20:47:37.683Z,11.87
2019-03-11T20:50:08.950Z,15.23
2019-03-11T20:52:39.404Z,16.97
2019-03-11T20:55:11.031Z,10.80
2019-03-11T20:57:41.522Z,12.50
2019-03-11T21:00:15.509Z,11.77
2019-03-11T21:02:46.169Z,11.27
2019-03-11T21:05:17.527Z,13.10
2019-03-11T21:07:47.822Z,15.13
2019-03-11T21:10:18.310Z,24.27
2019-03-11T21:12:48.912Z,13.87
2019-03-11T21:15:19.392Z,13.53
2019-03-11T21:17:49.748Z,15.90
2019-03-11T21:20:20.215Z,11.40
2019-03-11T21:22:50.491Z,12.23
2019-03-11T21:25:20.953Z,9.63
2019-03-11T21:27:51.435Z,17.30
2019-03-11T21:30:21.747Z,13.87
2019-03-11T21:32:52.020Z,9.30
2019-03-11T21:35:22.504Z,9.00
2019-03-11T21:37:52.811Z,12.13
2019-03-11T21:40:23.619Z,10.07
2019-03-11T21:42:54.006Z,11.93
2019-03-11T21:45:33.659Z,13.77
2019-03-11T21:47:54.708Z,7.50
2019-03-11T21:50:25.024Z,12.70
2019-03-11T21:52:55.508Z,24.33
2019-03-11T21:55:26.135Z,11.00
2019-03-11T21:57:56.516Z,7.67
2019-03-11T22:00:34.502Z,10.87
2019-03-11T22:02:57.270Z,8.33
2019-03-11T22:05:27.580Z,6.83
2019-03-11T22:07:57.924Z,7.07
2019-03-11T22:10:27.638Z,5.93
2019-03-11T22:12:57.777Z,9.13
2019-03-11T22:15:28.139Z,6.53
2019-03-11T22:17:58.451Z,8.90
2019-03-11T22:20:28.831Z,6.87
2019-03-11T22:22:59.151Z,7.60
2019-03-11T22:25:29.568Z,5.70
2019-03-11T22:28:00.090Z,6.27
2019-03-11T22:30:30.360Z,6.60
2019-03-11T22:33:00.781Z,5.77
2019-03-11T22:35:31.117Z,6.47
2019-03-11T22:38:01.415Z,6.37
2019-03-11T22:40:31.179Z,6.53
2019-03-11T22:43:01.427Z,7.00
2019-03-11T22:45:31.684Z,7.00
2019-03-11T22:48:01.867Z,6.23
2019-03-11T22:50:32.209Z,6.47
2019-03-11T22:53:02.408Z,5.77
2019-03-11T22:55:32.536Z,6.30
2019-03-11T22:58:02.758Z,6.20
2019-03-11T23:00:44.904Z,7.13
2019-03-11T23:03:15.199Z,7.30
2019-03-11T23:05:56.904Z,7.40
2019-03-11T23:08:15.275Z,5.63
2019-03-11T23:10:45.448Z,7.03
2019-03-11T23:13:16.264Z,5.57
2019-03-11T23:15:46.886Z,6.07
2019-03-11T23:18:17.264Z,6.43
2019-03-11T23:20:47.539Z,6.80
2019-03-11T23:23:18.044Z,5.80
2019-03-11T23:25:48.387Z,5.43
2019-03-11T23:28:18.711Z,6.37
2019-03-11T23:30:49.215Z,6.27
2019-03-11T23:33:19.568Z,7.17
2019-03-11T23:35:49.884Z,6.70
2019-03-11T23:38:20.368Z,8.10
2019-03-11T23:40:50.643Z,6.97
2019-03-11T23:43:21.006Z,5.37
2019-03-11T23:45:51.350Z,6.93
2019-03-11T23:48:21.610Z,6.87
2019-03-11T23:50:51.851Z,6.73
2019-03-11T23:53:22.163Z,6.73
2019-03-11T23:55:52.486Z,7.83
2019-03-11T23:58:23.215Z,8.43
